Time;durP1;ratioP1;P1;durP2;ratioP2;P2;SDS_P1;SDS_P2;PMS_P1;PMS_P2;Temp;Humidity;BMP_temperature;BMP_pressure;BME280_temperature;BME280_humidity;BME280_pressure;Samples;Min_cycle;Max_cycle;Signal;HPM_P1;HPM_P2
2022/01/14 00:01:57;;;;;;;0.30;0.30;;;;;;;;;;5002059;28;20056;-83
2022/01/14 00:04:23;;;;;;;0.20;0.20;;;;;;;;;;5000354;28;20025;-83
2022/01/14 00:06:49;;;;;;;1.52;1.42;;;;;;;;;;5001530;28;20042;-83
2022/01/14 00:09:16;;;;;;;0.20;0.20;;;;;;;;;;5002861;28;20044;-83
2022/01/14 00:11:48;;;;;;;0.75;0.75;;;;;;;;;;5001406;28;20113;-83
2022/01/14 00:16:40;;;;;;;0.10;0.10;;;;;;;;;;5002326;28;20030;-82
2022/01/14 00:19:06;;;;;;;0.50;0.50;;;;;;;;;;5001281;28;20037;-83
2022/01/14 00:21:34;;;;;;;0.30;0.30;;;;;;;;;;5001662;28;20026;-83
2022/01/14 00:24:09;;;;;;;0.32;0.32;;;;;;;;;;5002048;28;20041;-83
2022/01/14 00:32:18;;;;;;;0.52;0.50;;;;;;;;;;5001229;28;20223;-79
2022/01/14 00:34:44;;;;;;;1.13;1.05;;;;;;;;;;4999274;28;20431;-79
2022/01/14 00:37:10;;;;;;;1.88;1.67;;;;;;;;;;5001014;28;20034;-79
2022/01/14 00:39:36;;;;;;;0.55;0.55;;;;;;;;;;5000694;28;20033;-79
2022/01/14 00:42:02;;;;;;;1.27;0.88;;;;;;;;;;5001927;28;20036;-79
2022/01/14 00:44:28;;;;;;;0.20;0.20;;;;;;;;;;5000955;28;20064;-79
2022/01/14 00:46:54;;;;;;;0.33;0.33;;;;;;;;;;5002469;28;20124;-79
2022/01/14 00:49:22;;;;;;;0.20;0.20;;;;;;;;;;5002588;28;20317;-80
2022/01/14 00:51:48;;;;;;;3.57;0.70;;;;;;;;;;5002032;28;20029;-80
2022/01/14 00:54:17;;;;;;;1.00;1.00;;;;;;;;;;5002156;28;20033;-79
2022/01/14 00:59:15;;;;;;;2.35;1.38;;;;;;;;;;5001900;28;20069;-80
2022/01/14 01:01:42;;;;;;;0.20;0.20;;;;;;;;;;5001580;28;20482;-81
2022/01/14 01:04:08;;;;;;;;;;;;;;;;;;5000632;28;20499;-80
2022/01/14 01:06:34;;;;;;;0.57;0.57;;;;;;;;;;4997399;28;20436;-80
2022/01/14 01:09:00;;;;;;;0.20;0.20;;;;;;;;;;5003354;28;20045;-80
2022/01/14 01:11:33;;;;;;;0.23;0.23;;;;;;;;;;5006197;28;20026;-80
2022/01/14 01:14:06;;;;;;;0.50;0.50;;;;;;;;;;5006087;28;20474;-80
2022/01/14 01:16:32;;;;;;;0.30;0.30;;;;;;;;;;5005987;28;20056;-82
2022/01/14 01:18:58;;;;;;;0.90;0.90;;;;;;;;;;5006208;28;20037;-81
2022/01/14 01:21:24;;;;;;;0.70;0.70;;;;;;;;;;5003203;28;20084;-82
2022/01/14 01:23:50;;;;;;;7.15;0.98;;;;;;;;;;5004585;28;20520;-82
2022/01/14 01:26:25;;;;;;;0.75;0.75;;;;;;;;;;5003249;28;20026;-82
2022/01/14 01:29:02;;;;;;;1.38;1.25;;;;;;;;;;5002600;28;20560;-82
2022/01/14 01:31:40;;;;;;;0.45;0.45;;;;;;;;;;5005726;28;20034;-82
2022/01/14 01:34:11;;;;;;;1.38;1.10;;;;;;;;;;5002446;28;20034;-82
2022/01/14 01:36:38;;;;;;;1.25;1.15;;;;;;;;;;5000347;28;20595;-83
2022/01/14 01:39:06;;;;;;;0.17;0.17;;;;;;;;;;5000135;28;20045;-82
2022/01/14 01:41:34;;;;;;;0.90;0.90;;;;;;;;;;5005635;28;20172;-82
2022/01/14 01:44:00;;;;;;;1.13;1.13;;;;;;;;;;5005593;28;20425;-82
2022/01/14 01:46:27;;;;;;;6.97;0.95;;;;;;;;;;5004921;28;20053;-82
2022/01/14 01:48:54;;;;;;;0.80;0.77;;;;;;;;;;5004847;28;20037;-83
2022/01/14 01:51:20;;;;;;;0.30;0.30;;;;;;;;;;5004426;28;20034;-82
2022/01/14 01:53:47;;;;;;;0.32;0.32;;;;;;;;;;5005147;28;20087;-82
2022/01/14 01:56:14;;;;;;;0.55;0.52;;;;;;;;;;5004167;28;20030;-83
2022/01/14 01:58:40;;;;;;;0.60;0.60;;;;;;;;;;5000045;28;20030;-83
2022/01/14 02:01:07;;;;;;;0.50;0.50;;;;;;;;;;5004375;28;20521;-83
2022/01/14 02:03:36;;;;;;;0.10;0.10;;;;;;;;;;5003432;28;20351;-83
2022/01/14 02:06:03;;;;;;;0.85;0.68;;;;;;;;;;5003627;28;20068;-83
2022/01/14 02:08:29;;;;;;;2.97;0.90;;;;;;;;;;4999455;28;20049;-83
2022/01/14 02:10:56;;;;;;;0.50;0.50;;;;;;;;;;5003564;28;20121;-83
2022/01/14 02:13:22;;;;;;;2.70;2.05;;;;;;;;;;5005476;28;20497;-83
2022/01/14 02:16:12;;;;;;;0.53;0.53;;;;;;;;;;5004076;28;20038;-81
2022/01/14 02:24:33;;;;;;;0.40;0.40;;;;;;;;;;4943460;29;20546;-81
2022/01/14 02:26:59;;;;;;;0.20;0.20;;;;;;;;;;4943007;29;20577;-81
2022/01/14 02:29:25;;;;;;;0.65;0.65;;;;;;;;;;4943578;29;20062;-81
2022/01/14 02:31:51;;;;;;;0.65;0.65;;;;;;;;;;4943374;29;20114;-81
2022/01/14 02:34:18;;;;;;;1.40;0.93;;;;;;;;;;4941462;29;20531;-81
2022/01/14 02:36:45;;;;;;;0.40;0.40;;;;;;;;;;4939999;29;20794;-81
2022/01/14 02:39:13;;;;;;;0.20;0.20;;;;;;;;;;4942791;29;20047;-81
2022/01/14 02:41:40;;;;;;;0.10;0.10;;;;;;;;;;4942631;29;20742;-80
2022/01/14 02:44:07;;;;;;;3.15;1.02;;;;;;;;;;4942203;28;20213;-81
2022/01/14 02:46:38;;;;;;;1.38;1.27;;;;;;;;;;4943238;29;20210;-81
2022/01/14 02:49:04;;;;;;;2.10;1.60;;;;;;;;;;4942552;29;20082;-80
2022/01/14 02:51:31;;;;;;;1.70;1.42;;;;;;;;;;4941351;29;20133;-80
2022/01/14 02:54:10;;;;;;;;;;;;;;;;;;4943081;29;20566;-80
2022/01/14 02:56:36;;;;;;;0.35;0.35;;;;;;;;;;4941949;29;19953;-81
2022/01/14 02:59:02;;;;;;;0.43;0.43;;;;;;;;;;4990792;28;20069;-82
2022/01/14 03:01:28;;;;;;;0.20;0.20;;;;;;;;;;5003582;28;20032;-81
2022/01/14 03:03:56;;;;;;;1.38;1.00;;;;;;;;;;5003670;28;20270;-82
2022/01/14 03:06:22;;;;;;;0.65;0.65;;;;;;;;;;5003276;28;20069;-82
2022/01/14 03:08:48;;;;;;;0.95;0.95;;;;;;;;;;5001772;28;20476;-82
2022/01/14 03:11:20;;;;;;;0.10;0.10;;;;;;;;;;5003685;28;20022;-84
2022/01/14 03:13:47;;;;;;;0.85;0.75;;;;;;;;;;5001829;28;20057;-84
2022/01/14 03:16:14;;;;;;;0.60;0.60;;;;;;;;;;5003678;28;20042;-83
2022/01/14 03:18:49;;;;;;;0.43;0.43;;;;;;;;;;5003875;28;20081;-82
2022/01/14 03:21:17;;;;;;;1.00;1.00;;;;;;;;;;5002720;28;20037;-81
2022/01/14 03:23:52;;;;;;;0.70;0.70;;;;;;;;;;4997859;28;20033;-82
2022/01/14 03:26:19;;;;;;;0.40;0.40;;;;;;;;;;4999177;28;20176;-83
2022/01/14 03:28:45;;;;;;;;;;;;;;;;;;5000405;28;20140;-81
2022/01/14 03:31:11;;;;;;;0.80;0.80;;;;;;;;;;5003174;28;20027;-82
2022/01/14 03:33:37;;;;;;;0.30;0.30;;;;;;;;;;5003559;28;20034;-82
2022/01/14 03:36:04;;;;;;;3.47;1.30;;;;;;;;;;5002716;28;20041;-82
2022/01/14 03:38:30;;;;;;;0.43;0.43;;;;;;;;;;5002968;28;20332;-82
2022/01/14 03:40:56;;;;;;;1.20;1.10;;;;;;;;;;5003417;28;20041;-82
2022/01/14 03:43:23;;;;;;;0.30;0.30;;;;;;;;;;4996535;28;20044;-82
2022/01/14 03:45:50;;;;;;;1.17;1.17;;;;;;;;;;5001717;28;20050;-83
2022/01/14 03:48:17;;;;;;;0.50;0.50;;;;;;;;;;4999927;28;20037;-83
2022/01/14 03:50:43;;;;;;;0.35;0.28;;;;;;;;;;5003283;28;20029;-82
2022/01/14 03:53:11;;;;;;;0.55;0.55;;;;;;;;;;5001439;28;20520;-83
2022/01/14 03:55:40;;;;;;;0.30;0.30;;;;;;;;;;5002450;28;20196;-83
2022/01/14 03:58:07;;;;;;;0.68;0.68;;;;;;;;;;5001961;28;20038;-83
2022/01/14 04:00:33;;;;;;;0.75;0.75;;;;;;;;;;5002556;28;20018;-82
2022/01/14 04:02:59;;;;;;;1.80;1.02;;;;;;;;;;5002198;28;20445;-82
2022/01/14 04:05:25;;;;;;;0.35;0.35;;;;;;;;;;5002615;28;20513;-83
2022/01/14 04:07:51;;;;;;;0.27;0.27;;;;;;;;;;5002474;28;20041;-83
2022/01/14 04:10:18;;;;;;;1.03;0.97;;;;;;;;;;5003226;28;20279;-82
2022/01/14 04:17:59;;;;;;;0.20;0.20;;;;;;;;;;4999978;28;20088;-82
2022/01/14 04:20:25;;;;;;;1.00;1.00;;;;;;;;;;4995522;28;20025;-85
2022/01/14 04:22:52;;;;;;;0.32;0.32;;;;;;;;;;5002840;28;20517;-85
2022/01/14 04:25:18;;;;;;;0.68;0.63;;;;;;;;;;4996897;28;20421;-81
2022/01/14 04:27:44;;;;;;;0.95;0.95;;;;;;;;;;5001129;28;20034;-82
2022/01/14 04:30:12;;;;;;;0.30;0.30;;;;;;;;;;5001692;28;20030;-82
2022/01/14 04:32:38;;;;;;;0.30;0.30;;;;;;;;;;5002130;28;20025;-80
2022/01/14 04:35:04;;;;;;;0.20;0.20;;;;;;;;;;5001812;28;20501;-81
2022/01/14 04:37:30;;;;;;;1.17;1.13;;;;;;;;;;5003564;28;20052;-81
2022/01/14 04:39:56;;;;;;;0.10;0.10;;;;;;;;;;5002220;28;20452;-81
2022/01/14 04:42:23;;;;;;;0.10;0.10;;;;;;;;;;5001247;28;20410;-79
2022/01/14 04:44:53;;;;;;;0.40;0.40;;;;;;;;;;5002276;28;20324;-79
2022/01/14 04:47:31;;;;;;;3.20;0.88;;;;;;;;;;4999667;28;20041;-79
2022/01/14 04:49:57;;;;;;;0.13;0.13;;;;;;;;;;5001170;28;20033;-79
2022/01/14 04:52:24;;;;;;;0.32;0.32;;;;;;;;;;5002289;28;20087;-79
2022/01/14 04:54:50;;;;;;;0.10;0.10;;;;;;;;;;5002278;28;20547;-79
2022/01/14 04:57:16;;;;;;;1.20;1.10;;;;;;;;;;5001625;28;20558;-78
2022/01/14 04:59:46;;;;;;;0.32;0.32;;;;;;;;;;5001995;28;20054;-79
2022/01/14 05:02:15;;;;;;;0.10;0.10;;;;;;;;;;5000896;28;20057;-79
2022/01/14 05:04:42;;;;;;;0.22;0.22;;;;;;;;;;5002574;28;20026;-80
2022/01/14 05:07:13;;;;;;;2.05;0.82;;;;;;;;;;5001541;28;20489;-79
2022/01/14 05:09:44;;;;;;;2.83;0.98;;;;;;;;;;5000468;28;20042;-79
2022/01/14 05:12:11;;;;;;;0.60;0.55;;;;;;;;;;5002491;28;20478;-79
2022/01/14 05:14:37;;;;;;;2.47;1.85;;;;;;;;;;5002055;28;20080;-79
2022/01/14 05:17:03;;;;;;;2.53;1.48;;;;;;;;;;5002007;28;20034;-82
2022/01/14 05:19:30;;;;;;;1.65;0.63;;;;;;;;;;4999654;28;20084;-81
2022/01/14 05:21:56;;;;;;;0.55;0.55;;;;;;;;;;5001219;28;20088;-81
2022/01/14 05:24:25;;;;;;;1.60;1.50;;;;;;;;;;5001666;28;20026;-81
2022/01/14 05:26:51;;;;;;;4.85;1.23;;;;;;;;;;5000807;28;20101;-81
2022/01/14 05:29:17;;;;;;;0.25;0.25;;;;;;;;;;4997170;28;20046;-81
2022/01/14 05:31:45;;;;;;;2.20;2.00;;;;;;;;;;5002831;28;20212;-80
2022/01/14 05:34:11;;;;;;;0.90;0.90;;;;;;;;;;5001469;28;20144;-80
2022/01/14 05:36:37;;;;;;;0.90;0.90;;;;;;;;;;5001359;28;20065;-77
2022/01/14 05:39:04;;;;;;;2.07;1.30;;;;;;;;;;5001481;28;20032;-81
2022/01/14 05:41:30;;;;;;;0.32;0.32;;;;;;;;;;4997690;28;20375;-81
2022/01/14 05:43:56;;;;;;;0.20;0.20;;;;;;;;;;4998331;28;20038;-81
2022/01/14 05:46:22;;;;;;;2.60;1.90;;;;;;;;;;4998944;28;20540;-81
2022/01/14 05:48:48;;;;;;;0.10;0.10;;;;;;;;;;4998184;28;20575;-81
2022/01/14 05:51:14;;;;;;;0.80;0.80;;;;;;;;;;4996841;28;20320;-82
2022/01/14 05:53:40;;;;;;;0.50;0.50;;;;;;;;;;5000649;28;20041;-82
2022/01/14 05:56:06;;;;;;;0.43;0.43;;;;;;;;;;5003376;28;20057;-83
2022/01/14 05:58:32;;;;;;;0.30;0.30;;;;;;;;;;5003873;28;20037;-83
2022/01/14 06:00:58;;;;;;;0.50;0.50;;;;;;;;;;5000683;28;20520;-84
2022/01/14 06:03:24;;;;;;;0.50;0.50;;;;;;;;;;5004972;28;20357;-82
2022/01/14 06:05:50;;;;;;;0.50;0.50;;;;;;;;;;5004907;28;20289;-82
2022/01/14 06:08:16;;;;;;;0.40;0.40;;;;;;;;;;5002530;28;20038;-84
2022/01/14 06:10:43;;;;;;;0.20;0.20;;;;;;;;;;5003859;28;20030;-87
2022/01/14 06:13:09;;;;;;;0.10;0.10;;;;;;;;;;5004213;28;20490;-80
2022/01/14 06:15:35;;;;;;;0.30;0.30;;;;;;;;;;4984322;28;20281;-82
2022/01/14 06:18:01;;;;;;;0.50;0.50;;;;;;;;;;4996474;28;20519;-89
2022/01/14 06:20:27;;;;;;;2.28;1.02;;;;;;;;;;5003469;28;20018;-90
2022/01/14 06:22:54;;;;;;;0.67;0.67;;;;;;;;;;5005237;28;20709;-89
2022/01/14 06:25:20;;;;;;;0.30;0.30;;;;;;;;;;5002495;28;20037;-89
2022/01/14 06:27:46;;;;;;;1.53;1.50;;;;;;;;;;5005331;28;20044;-83
2022/01/14 06:30:12;;;;;;;3.00;1.95;;;;;;;;;;5004368;28;20691;-83
2022/01/14 06:32:41;;;;;;;1.88;1.65;;;;;;;;;;5004790;28;20103;-82
2022/01/14 06:35:10;;;;;;;0.10;0.10;;;;;;;;;;5005037;28;20025;-87
2022/01/14 06:37:36;;;;;;;0.10;0.10;;;;;;;;;;5003321;28;20504;-83
2022/01/14 06:40:03;;;;;;;1.07;1.07;;;;;;;;;;5003340;28;20041;-82
2022/01/14 06:42:29;;;;;;;5.47;0.90;;;;;;;;;;4999599;28;20316;-83
2022/01/14 06:44:55;;;;;;;0.20;0.20;;;;;;;;;;5002800;28;20141;-82
2022/01/14 06:47:22;;;;;;;0.10;0.10;;;;;;;;;;5002372;28;20394;-82
2022/01/14 06:49:49;;;;;;;0.30;0.30;;;;;;;;;;4999376;28;20309;-84
2022/01/14 06:52:15;;;;;;;0.10;0.10;;;;;;;;;;5002629;28;20025;-83
2022/01/14 06:54:41;;;;;;;14.98;2.85;;;;;;;;;;5004090;28;20052;-83
2022/01/14 06:57:07;;;;;;;1.13;1.13;;;;;;;;;;5004593;28;20041;-84
2022/01/14 06:59:34;;;;;;;1.88;1.17;;;;;;;;;;5003910;28;20049;-85
2022/01/14 07:02:01;;;;;;;0.10;0.10;;;;;;;;;;5004078;28;20025;-84
2022/01/14 07:04:27;;;;;;;0.82;0.80;;;;;;;;;;5004638;28;20114;-84
2022/01/14 07:06:53;;;;;;;1.10;1.10;;;;;;;;;;5002669;28;20532;-83
2022/01/14 07:09:19;;;;;;;5.82;0.70;;;;;;;;;;5004598;28;20156;-83
2022/01/14 07:11:52;;;;;;;0.50;0.35;;;;;;;;;;5004823;28;20454;-83
2022/01/14 07:14:18;;;;;;;2.85;0.68;;;;;;;;;;4989818;28;20404;-83
2022/01/14 07:16:44;;;;;;;0.57;0.57;;;;;;;;;;5004274;28;20795;-83
2022/01/14 07:19:12;;;;;;;0.27;0.27;;;;;;;;;;5003920;28;20535;-83
2022/01/14 07:21:39;;;;;;;0.28;0.28;;;;;;;;;;5003373;28;20026;-83
2022/01/14 07:24:05;;;;;;;0.40;0.40;;;;;;;;;;5003288;28;20034;-83
2022/01/14 07:26:32;;;;;;;0.73;0.45;;;;;;;;;;5004129;28;20108;-83
2022/01/14 07:28:58;;;;;;;0.82;0.82;;;;;;;;;;5003843;28;20041;-83
2022/01/14 07:31:24;;;;;;;0.30;0.30;;;;;;;;;;5004566;28;20030;-83
2022/01/14 07:33:50;;;;;;;0.20;0.20;;;;;;;;;;5003777;28;20493;-83
2022/01/14 07:36:16;;;;;;;0.30;0.30;;;;;;;;;;5003918;28;20593;-84
2022/01/14 07:38:42;;;;;;;0.20;0.20;;;;;;;;;;5003413;28;20288;-85
2022/01/14 07:41:08;;;;;;;1.00;0.77;;;;;;;;;;5003506;28;20030;-85
2022/01/14 07:43:37;;;;;;;0.20;0.20;;;;;;;;;;5001563;28;20125;-85
2022/01/14 07:46:05;;;;;;;0.30;0.30;;;;;;;;;;5003371;28;20053;-85
2022/01/14 07:48:31;;;;;;;0.40;0.40;;;;;;;;;;5003724;28;20424;-85
2022/01/14 07:50:58;;;;;;;1.08;1.00;;;;;;;;;;5003800;28;20566;-85
2022/01/14 07:53:24;;;;;;;0.20;0.20;;;;;;;;;;5002096;28;20382;-85
2022/01/14 07:55:50;;;;;;;0.90;0.85;;;;;;;;;;5002907;28;20034;-85
2022/01/14 07:58:16;;;;;;;0.20;0.20;;;;;;;;;;5002415;28;20409;-85
2022/01/14 08:00:44;;;;;;;0.47;0.47;;;;;;;;;;5003754;28;20033;-84
2022/01/14 08:03:10;;;;;;;0.35;0.35;;;;;;;;;;5001800;28;20049;-85
2022/01/14 08:05:36;;;;;;;0.30;0.30;;;;;;;;;;5003259;28;20467;-87
2022/01/14 08:08:07;;;;;;;1.25;1.10;;;;;;;;;;5003752;28;20048;-87
2022/01/14 08:10:34;;;;;;;0.30;0.30;;;;;;;;;;5002413;28;20030;-86
2022/01/14 08:13:00;;;;;;;0.20;0.20;;;;;;;;;;5001662;28;20037;-87
2022/01/14 08:15:26;;;;;;;1.90;0.47;;;;;;;;;;5003022;28;20041;-87
2022/01/14 08:17:53;;;;;;;0.10;0.10;;;;;;;;;;5002710;28;20300;-87
2022/01/14 08:20:19;;;;;;;1.00;1.00;;;;;;;;;;4987821;28;20030;-87
2022/01/14 08:22:45;;;;;;;0.30;0.30;;;;;;;;;;5003786;28;20050;-87
2022/01/14 08:25:12;;;;;;;0.05;0.05;;;;;;;;;;5001370;28;20462;-86
2022/01/14 08:27:38;;;;;;;0.40;0.40;;;;;;;;;;5002324;28;20026;-87
2022/01/14 08:30:05;;;;;;;0.65;0.65;;;;;;;;;;5002872;28;20077;-86
2022/01/14 08:32:31;;;;;;;0.43;0.43;;;;;;;;;;5001223;28;20040;-85
2022/01/14 08:34:57;;;;;;;5.03;2.00;;;;;;;;;;5003310;28;20133;-85
2022/01/14 08:37:23;;;;;;;1.07;1.03;;;;;;;;;;5002664;28;20247;-87
2022/01/14 08:39:49;;;;;;;1.98;0.93;;;;;;;;;;5001263;28;20288;-84
2022/01/14 08:42:15;;;;;;;0.30;0.30;;;;;;;;;;5001515;28;20032;-86
2022/01/14 08:44:42;;;;;;;0.10;0.10;;;;;;;;;;4987848;28;20054;-86
2022/01/14 08:47:09;;;;;;;0.20;0.20;;;;;;;;;;5002797;28;20030;-86
2022/01/14 08:49:44;;;;;;;0.77;0.35;;;;;;;;;;5003543;28;20038;-86
2022/01/14 08:52:11;;;;;;;1.15;1.15;;;;;;;;;;5002542;28;20497;-87
2022/01/14 08:54:37;;;;;;;0.10;0.10;;;;;;;;;;5002683;28;20029;-87
2022/01/14 08:57:04;;;;;;;0.20;0.20;;;;;;;;;;5002653;28;20041;-87
2022/01/14 08:59:30;;;;;;;0.15;0.15;;;;;;;;;;5002818;28;20029;-87
2022/01/14 09:01:56;;;;;;;1.00;0.38;;;;;;;;;;5003067;28;20474;-87
2022/01/14 09:04:23;;;;;;;0.50;0.50;;;;;;;;;;5001018;28;20464;-87
2022/01/14 09:06:49;;;;;;;0.10;0.10;;;;;;;;;;5003029;28;20056;-87
2022/01/14 09:09:15;;;;;;;1.10;0.73;;;;;;;;;;5002962;28;20863;-87
2022/01/14 09:11:41;;;;;;;0.60;0.45;;;;;;;;;;5003037;28;20037;-87
2022/01/14 09:14:07;;;;;;;0.10;0.10;;;;;;;;;;5002995;28;20025;-87
2022/01/14 09:16:33;;;;;;;0.10;0.10;;;;;;;;;;5003654;28;20368;-87
2022/01/14 09:18:59;;;;;;;0.90;0.87;;;;;;;;;;5000997;28;20038;-87
2022/01/14 09:21:25;;;;;;;0.65;0.28;;;;;;;;;;5002636;28;20055;-87
2022/01/14 09:23:56;;;;;;;0.40;0.35;;;;;;;;;;5002821;28;20042;-87
2022/01/14 09:26:22;;;;;;;0.10;0.10;;;;;;;;;;4987670;28;20553;-87
2022/01/14 09:28:49;;;;;;;0.10;0.10;;;;;;;;;;5004197;28;20041;-86
2022/01/14 09:31:16;;;;;;;0.00;0.00;;;;;;;;;;5006743;28;20030;-87
2022/01/14 09:33:42;;;;;;;0.38;0.38;;;;;;;;;;5006819;28;20033;-87
2022/01/14 09:36:08;;;;;;;0.30;0.30;;;;;;;;;;5006518;28;20026;-87
2022/01/14 09:38:34;;;;;;;0.77;0.40;;;;;;;;;;5006508;28;20041;-87
2022/01/14 09:41:00;;;;;;;0.22;0.22;;;;;;;;;;5006250;28;20657;-86
2022/01/14 09:43:26;;;;;;;0.60;0.60;;;;;;;;;;4994492;28;20129;-87
2022/01/14 09:45:53;;;;;;;0.10;0.10;;;;;;;;;;5003100;28;20096;-87
2022/01/14 09:48:20;;;;;;;0.20;0.20;;;;;;;;;;5005652;28;20388;-87
2022/01/14 09:50:46;;;;;;;1.23;0.85;;;;;;;;;;5005990;28;20092;-87
2022/01/14 09:53:13;;;;;;;3.93;2.23;;;;;;;;;;5006045;28;20044;-86
2022/01/14 09:55:39;;;;;;;;;;;;;;;;;;5006732;28;20030;-87
2022/01/14 09:58:05;;;;;;;0.20;0.20;;;;;;;;;;5005706;28;19913;-86
2022/01/14 10:00:31;;;;;;;0.08;0.08;;;;;;;;;;5005986;28;20029;-86
2022/01/14 10:02:57;;;;;;;0.75;0.40;;;;;;;;;;5005856;28;20033;-86
2022/01/14 10:05:42;;;;;;;0.30;0.15;;;;;;;;;;5006024;28;20036;-86
2022/01/14 10:08:14;;;;;;;0.52;0.30;;;;;;;;;;5005611;28;20080;-86
2022/01/14 10:10:46;;;;;;;0.40;0.40;;;;;;;;;;5006542;28;20030;-86
2022/01/14 10:13:22;;;;;;;0.43;0.35;;;;;;;;;;5005466;28;20045;-86
2022/01/14 10:15:50;;;;;;;0.95;0.95;;;;;;;;;;5005101;28;20113;-86
2022/01/14 10:18:18;;;;;;;0.20;0.20;;;;;;;;;;5004937;28;20789;-87
2022/01/14 10:20:44;;;;;;;0.10;0.10;;;;;;;;;;5005458;28;20059;-86
2022/01/14 10:23:12;;;;;;;0.35;0.35;;;;;;;;;;5005577;28;20034;-86
2022/01/14 10:25:39;;;;;;;2.08;0.80;;;;;;;;;;5006051;28;20025;-86
2022/01/14 10:28:15;;;;;;;0.75;0.63;;;;;;;;;;5005246;28;20624;-87
2022/01/14 10:30:44;;;;;;;0.10;0.10;;;;;;;;;;5003572;28;20030;-86
2022/01/14 10:33:11;;;;;;;0.57;0.57;;;;;;;;;;5004876;28;20415;-87
2022/01/14 10:35:39;;;;;;;0.10;0.10;;;;;;;;;;5004999;28;20029;-86
2022/01/14 10:38:06;;;;;;;0.45;0.45;;;;;;;;;;5005133;28;20033;-86
2022/01/14 10:40:35;;;;;;;0.10;0.10;;;;;;;;;;5002842;28;20573;-87
2022/01/14 10:43:08;;;;;;;0.20;0.20;;;;;;;;;;4997504;28;20042;-86
2022/01/14 10:45:35;;;;;;;0.10;0.10;;;;;;;;;;4999499;28;20054;-86
2022/01/14 10:48:01;;;;;;;;;;;;;;;;;;5005442;28;20125;-84
2022/01/14 10:50:27;;;;;;;0.05;0.05;;;;;;;;;;5004868;28;19914;-85
2022/01/14 10:52:53;;;;;;;0.90;0.90;;;;;;;;;;5005420;28;20161;-84
2022/01/14 10:55:28;;;;;;;0.95;0.90;;;;;;;;;;5003205;28;20118;-87
2022/01/14 10:57:54;;;;;;;0.20;0.20;;;;;;;;;;5004379;28;20076;-87
2022/01/14 11:00:21;;;;;;;0.10;0.10;;;;;;;;;;5004553;28;20026;-84
2022/01/14 11:02:52;;;;;;;0.25;0.25;;;;;;;;;;5004786;28;20037;-84
2022/01/14 11:05:22;;;;;;;0.30;0.30;;;;;;;;;;5004625;28;20065;-85
2022/01/14 11:07:50;;;;;;;0.10;0.10;;;;;;;;;;5000849;28;20038;-85
2022/01/14 11:10:27;;;;;;;0.10;0.10;;;;;;;;;;5003871;28;20478;-84
2022/01/14 11:12:53;;;;;;;;;;;;;;;;;;5004551;28;20033;-84
2022/01/14 11:15:19;;;;;;;0.40;0.40;;;;;;;;;;5004046;28;19912;-85
2022/01/14 11:17:49;;;;;;;0.37;0.37;;;;;;;;;;5004118;28;20461;-85
2022/01/14 11:20:21;;;;;;;0.10;0.10;;;;;;;;;;5003959;28;20480;-85
2022/01/14 11:25:32;;;;;;;0.15;0.15;;;;;;;;;;5002458;28;20064;-85
2022/01/14 11:27:59;;;;;;;1.20;0.40;;;;;;;;;;5003650;28;20421;-85
2022/01/14 11:30:32;;;;;;;0.00;0.00;;;;;;;;;;5003716;28;20372;-85
2022/01/14 11:33:03;;;;;;;0.38;0.38;;;;;;;;;;5003521;28;20037;-84
2022/01/14 11:35:29;;;;;;;0.30;0.30;;;;;;;;;;5002168;28;20062;-84
2022/01/14 11:37:55;;;;;;;0.30;0.30;;;;;;;;;;5003940;28;20029;-85
2022/01/14 11:40:21;;;;;;;0.40;0.27;;;;;;;;;;5004127;28;20034;-84
2022/01/14 11:42:50;;;;;;;4.78;1.20;;;;;;;;;;4998306;28;20046;-87
2022/01/14 11:45:16;;;;;;;0.28;0.17;;;;;;;;;;4995361;28;20045;-85
2022/01/14 11:47:44;;;;;;;1.13;1.13;;;;;;;;;;5003630;28;20506;-85
2022/01/14 11:50:20;;;;;;;0.80;0.65;;;;;;;;;;5003402;28;20466;-85
2022/01/14 11:52:47;;;;;;;0.10;0.10;;;;;;;;;;5004101;28;20160;-85
2022/01/14 11:55:13;;;;;;;;;;;;;;;;;;5003717;28;20517;-85
2022/01/14 11:57:45;;;;;;;0.47;0.47;;;;;;;;;;5003514;28;19920;-85
2022/01/14 12:00:31;;;;;;;0.15;0.15;;;;;;;;;;5003470;28;20368;-85
2022/01/14 12:02:58;;;;;;;1.08;0.50;;;;;;;;;;5002072;28;20133;-85
2022/01/14 12:05:25;;;;;;;0.10;0.10;;;;;;;;;;5003413;28;20026;-85
2022/01/14 12:08:10;;;;;;;0.30;0.30;;;;;;;;;;5003939;28;20025;-85
2022/01/14 12:10:37;;;;;;;0.40;0.40;;;;;;;;;;5002333;28;20042;-85
2022/01/14 12:13:03;;;;;;;;;;;;;;;;;;5002158;28;20081;-85
2022/01/14 12:15:56;;;;;;;0.15;0.13;;;;;;;;;;5001658;28;19913;-85
2022/01/14 12:18:41;;;;;;;0.88;0.80;;;;;;;;;;5003288;28;20444;-85
2022/01/14 12:21:07;;;;;;;3.60;0.50;;;;;;;;;;5003142;28;20060;-85
2022/01/14 12:23:33;;;;;;;0.10;0.10;;;;;;;;;;5001911;28;20072;-85
2022/01/14 12:26:12;;;;;;;3.23;1.03;;;;;;;;;;5003656;28;20034;-85
2022/01/14 12:28:38;;;;;;;0.10;0.10;;;;;;;;;;5002653;28;20281;-85
2022/01/14 12:31:04;;;;;;;0.10;0.10;;;;;;;;;;5003350;28;20120;-86
2022/01/14 12:33:45;;;;;;;0.40;0.40;;;;;;;;;;5003391;28;20585;-86
2022/01/14 12:36:12;;;;;;;1.95;1.55;;;;;;;;;;5003366;28;20515;-85
2022/01/14 12:38:38;;;;;;;;;;;;;;;;;;5002123;28;20042;-85
2022/01/14 12:41:04;;;;;;;0.32;0.32;;;;;;;;;;5003273;28;20017;-85
2022/01/14 12:43:30;;;;;;;4.95;0.30;;;;;;;;;;4992366;28;20025;-85
2022/01/14 12:46:12;;;;;;;0.30;0.30;;;;;;;;;;5000260;28;20054;-86
2022/01/14 12:48:40;;;;;;;0.20;0.20;;;;;;;;;;5002936;28;20021;-85
2022/01/14 12:51:29;;;;;;;0.22;0.22;;;;;;;;;;5003038;28;20073;-86
2022/01/14 12:53:57;;;;;;;0.77;0.70;;;;;;;;;;5002124;28;20441;-86
2022/01/14 12:56:24;;;;;;;0.13;0.13;;;;;;;;;;4988389;28;20029;-86
2022/01/14 12:58:54;;;;;;;0.30;0.30;;;;;;;;;;5000053;28;20123;-86
2022/01/14 13:01:37;;;;;;;0.35;0.35;;;;;;;;;;5003429;28;20037;-85
2022/01/14 13:04:05;;;;;;;0.05;0.05;;;;;;;;;;5004183;28;20040;-86
2022/01/14 13:06:43;;;;;;;0.40;0.40;;;;;;;;;;5007183;28;20028;-86
2022/01/14 13:09:10;;;;;;;0.70;0.70;;;;;;;;;;5006793;28;20053;-86
2022/01/14 13:11:49;;;;;;;0.32;0.32;;;;;;;;;;5007124;28;20386;-86
2022/01/14 13:14:19;;;;;;;0.17;0.17;;;;;;;;;;5006688;28;20565;-85
2022/01/14 13:16:53;;;;;;;0.52;0.52;;;;;;;;;;5007490;28;20037;-86
2022/01/14 13:19:23;;;;;;;0.10;0.10;;;;;;;;;;5007117;28;20117;-85
2022/01/14 13:21:49;;;;;;;1.65;1.00;;;;;;;;;;5006655;28;20026;-86
2022/01/14 13:24:19;;;;;;;0.60;0.40;;;;;;;;;;5006743;28;20536;-86
2022/01/14 13:26:45;;;;;;;1.42;0.82;;;;;;;;;;5007029;28;20268;-86
2022/01/14 13:29:11;;;;;;;0.00;0.00;;;;;;;;;;5006623;28;20465;-85
2022/01/14 13:31:37;;;;;;;0.10;0.10;;;;;;;;;;5006983;28;20355;-86
2022/01/14 13:34:03;;;;;;;0.60;0.60;;;;;;;;;;5006064;28;20504;-86
2022/01/14 13:36:29;;;;;;;1.85;1.33;;;;;;;;;;5005985;28;20112;-85
2022/01/14 13:39:09;;;;;;;1.65;0.40;;;;;;;;;;5005792;28;20061;-85
2022/01/14 13:41:35;;;;;;;0.77;0.63;;;;;;;;;;5006242;28;20052;-85
2022/01/14 13:44:20;;;;;;;0.10;0.10;;;;;;;;;;4992117;28;20121;-85
2022/01/14 13:46:54;;;;;;;0.45;0.45;;;;;;;;;;5006639;28;20086;-85
2022/01/14 13:49:23;;;;;;;3.40;1.00;;;;;;;;;;5006404;28;20081;-86
2022/01/14 13:52:08;;;;;;;0.43;0.43;;;;;;;;;;5006005;28;20044;-86
2022/01/14 13:54:34;;;;;;;0.90;0.32;;;;;;;;;;5004396;28;20472;-85
2022/01/14 13:57:14;;;;;;;1.35;0.77;;;;;;;;;;5005889;28;20543;-86
2022/01/14 13:59:41;;;;;;;0.73;0.57;;;;;;;;;;5005975;28;20117;-86
2022/01/14 14:02:09;;;;;;;0.35;0.35;;;;;;;;;;5005924;28;20497;-86
2022/01/14 14:04:43;;;;;;;0.45;0.35;;;;;;;;;;5004727;28;20116;-86
2022/01/14 14:07:12;;;;;;;1.88;0.52;;;;;;;;;;5005641;28;20044;-86
2022/01/14 14:09:55;;;;;;;0.43;0.20;;;;;;;;;;5005655;28;20076;-86
2022/01/14 14:12:46;;;;;;;1.10;0.30;;;;;;;;;;5005907;28;20471;-86
2022/01/14 14:18:04;;;;;;;0.80;0.68;;;;;;;;;;5006183;28;20532;-85
2022/01/14 14:20:30;;;;;;;;;;;;;;;;;;4991473;28;20121;-86
2022/01/14 14:22:56;;;;;;;0.43;0.43;;;;;;;;;;5005877;28;20007;-85
2022/01/14 14:25:29;;;;;;;0.63;0.63;;;;;;;;;;5005858;28;20034;-86
2022/01/14 14:27:55;;;;;;;1.45;1.10;;;;;;;;;;5005225;28;20026;-86
2022/01/14 14:30:21;;;;;;;0.17;0.17;;;;;;;;;;5003915;28;20034;-86
2022/01/14 14:32:47;;;;;;;0.65;0.65;;;;;;;;;;5005405;28;20109;-86
2022/01/14 14:35:16;;;;;;;0.10;0.10;;;;;;;;;;5005521;28;20456;-86
2022/01/14 14:37:48;;;;;;;0.20;0.20;;;;;;;;;;5006387;28;20092;-86
2022/01/14 14:40:18;;;;;;;3.08;0.50;;;;;;;;;;5005078;28;20069;-86
2022/01/14 14:42:45;;;;;;;0.68;0.68;;;;;;;;;;4999756;28;20065;-86
2022/01/14 14:45:11;;;;;;;0.10;0.10;;;;;;;;;;4994272;28;20050;-86
2022/01/14 14:47:37;;;;;;;0.95;0.88;;;;;;;;;;5005136;28;20041;-85
2022/01/14 14:50:04;;;;;;;0.67;0.63;;;;;;;;;;5005050;28;20049;-85
2022/01/14 14:52:30;;;;;;;;;;;;;;;;;;5006058;28;20018;-85
2022/01/14 14:54:56;;;;;;;0.93;0.90;;;;;;;;;;5005015;28;20454;-86
2022/01/14 14:57:22;;;;;;;0.70;0.70;;;;;;;;;;5004981;28;20485;-86
2022/01/14 14:59:48;;;;;;;2.90;2.00;;;;;;;;;;5004880;28;20072;-86
2022/01/14 15:02:15;;;;;;;0.10;0.10;;;;;;;;;;5004908;28;20034;-86
2022/01/14 15:04:42;;;;;;;0.43;0.43;;;;;;;;;;5005788;28;20041;-86
2022/01/14 15:07:09;;;;;;;1.10;1.00;;;;;;;;;;5004778;28;20042;-86
2022/01/14 15:09:35;;;;;;;0.60;0.60;;;;;;;;;;5003021;28;20042;-85
2022/01/14 15:12:03;;;;;;;0.40;0.40;;;;;;;;;;5004436;28;20559;-85
2022/01/14 15:14:30;;;;;;;3.15;0.60;;;;;;;;;;5004270;28;20103;-83
2022/01/14 15:17:20;;;;;;;0.00;0.00;;;;;;;;;;5004500;28;20029;-85
2022/01/14 15:19:45;;;;;;;0.40;0.20;;;;;;;;;;5004053;28;20398;-85